KALW/ALW METAR and TAF weather

Enter ICAO airport designator
Station Type Date Time Source
KALW METAR 2020/09/22 15:53 UTC NOAA

KALW 221553Z 19010KT 10SM SCT110 18/08 A3000 RMK AO2 SLP155 T01830078


Station Type Date Time Source
KALW Decoded METAR 2020/09/22 15:53 UTC NOAA

WALLA WALLA REGIONAL AIRPORT, WA, United States (KALW) 46-06N 118-17W 363M
Sep 22, 2020 - 11:53 AM EDT / 2020.09.22 1553 UTC
Wind: from the S (190 degrees) at 12 MPH (10 KT):0
Visibility: 10 mile(s):0
Sky conditions: partly cloudy
Temperature: 64.9 F (18.3 C)
Dew Point: 46.0 F (7.8 C)
Relative Humidity: 50%
Pressure (altimeter): 30 in. Hg (1015 hPa)
ob: KALW 221553Z 19010KT 10SM SCT110 18/08 A3000 RMK AO2 SLP155 T01830078
cycle: 16

Station Type Date Time Source
KALW TAF 2020/09/22 12:22 UTC NOAA

TAF KALW 221120Z 2212/2312 19006KT P6SM BKN150

Example: see airport list